Time;durP1;ratioP1;P1;durP2;ratioP2;P2;SDS_P1;SDS_P2;PMS_P1;PMS_P2;Temp;Humidity;BMP_temperature;BMP_pressure;BME280_temperature;BME280_humidity;BME280_pressure;Samples;Min_cycle;Max_cycle;Signal;HPM_P1;HPM_P2
2023/08/27 00:00:04;;;;;;;;;;;26.60;60.50;;;;;;5093526;28;20421;-59
2023/08/27 00:02:31;;;;;;;;;;;26.60;60.50;;;;;;5093617;28;19924;-59
2023/08/27 00:04:58;;;;;;;;;;;26.70;60.70;;;;;;5093046;28;19924;-59
2023/08/27 00:07:25;;;;;;;;;;;26.60;60.60;;;;;;5092961;28;20368;-59
2023/08/27 00:09:52;;;;;;;;;;;26.60;60.60;;;;;;5093290;28;19928;-59
2023/08/27 00:12:19;;;;;;;;;;;26.60;60.60;;;;;;5093524;28;19924;-59
2023/08/27 00:14:46;;;;;;;;;;;26.60;60.60;;;;;;5093649;28;19925;-59
2023/08/27 00:17:13;;;;;;;;;;;26.60;60.60;;;;;;5093406;28;20325;-59
2023/08/27 00:19:40;;;;;;;;;;;26.60;60.60;;;;;;5093488;28;19924;-59
2023/08/27 00:22:07;;;;;;;;;;;26.60;60.60;;;;;;5093656;28;19994;-62
2023/08/27 00:24:34;;;;;;;;;;;26.60;60.60;;;;;;5092179;28;19928;-60
2023/08/27 00:27:03;;;;;;;;;;;26.60;60.60;;;;;;5093039;28;19978;-59
2023/08/27 00:29:30;;;;;;;;;;;26.60;60.60;;;;;;5093504;28;19935;-59
2023/08/27 00:31:57;;;;;;;;;;;26.60;60.60;;;;;;5097004;28;19977;-59
2023/08/27 00:34:32;;;;;;;;;;;26.60;60.70;;;;;;5096772;28;19966;-59
2023/08/27 00:36:59;;;;;;;;;;;26.60;60.70;;;;;;5096603;28;19924;-59
2023/08/27 00:39:27;;;;;;;;;;;26.60;60.60;;;;;;5096826;28;19928;-59
2023/08/27 00:41:55;;;;;;;;;;;26.60;60.70;;;;;;5096701;28;19925;-59
2023/08/27 00:44:22;;;;;;;;;;;26.60;60.60;;;;;;5097117;28;20033;-59
2023/08/27 00:46:50;;;;;;;;;;;26.60;60.60;;;;;;5096509;28;19974;-59
2023/08/27 00:49:17;;;;;;;;;;;26.60;60.70;;;;;;5095807;28;19985;-59
2023/08/27 00:51:45;;;;;;;;;;;26.60;60.70;;;;;;5095395;28;19974;-59
2023/08/27 00:54:12;;;;;;;;;;;26.60;60.70;;;;;;5090472;28;19930;-59
2023/08/27 00:56:40;;;;;;;;;;;26.60;60.70;;;;;;5096060;28;19924;-59
2023/08/27 00:59:07;;;;;;;;;;;26.60;60.60;;;;;;5096879;28;20338;-59
2023/08/27 01:01:35;;;;;;;;;;;26.60;60.70;;;;;;5096677;28;19985;-59
2023/08/27 01:04:02;;;;;;;;;;;26.60;60.70;;;;;;5096780;28;19950;-59
2023/08/27 01:06:29;;;;;;;;;;;26.60;60.70;;;;;;5095911;28;19954;-59
2023/08/27 01:09:09;;;;;;;;;;;26.60;60.70;;;;;;5096350;28;20360;-59
2023/08/27 01:11:39;;;;;;;;;;;26.60;60.70;;;;;;5095985;28;19924;-59
2023/08/27 01:14:09;;;;;;;;;;;26.60;60.60;;;;;;5095643;28;20331;-59
2023/08/27 01:16:37;;;;;;;;;;;26.60;60.60;;;;;;5096139;28;19982;-59
2023/08/27 01:19:06;;;;;;;;;;;26.60;60.60;;;;;;5095784;28;20376;-59
2023/08/27 01:21:33;;;;;;;;;;;26.60;60.60;;;;;;5096230;28;19973;-59
2023/08/27 01:24:00;;;;;;;;;;;26.60;60.60;;;;;;5094911;28;19924;-59
2023/08/27 01:26:34;;;;;;;;;;;26.60;60.60;;;;;;5096053;28;20325;-60
2023/08/27 01:29:10;;;;;;;;;;;26.60;60.60;;;;;;5095707;28;19977;-59
2023/08/27 01:31:39;;;;;;;;;;;26.60;60.60;;;;;;5095484;28;19969;-59
2023/08/27 01:34:08;;;;;;;;;;;26.60;60.60;;;;;;5095887;28;19924;-59
2023/08/27 01:36:35;;;;;;;;;;;26.60;60.60;;;;;;5095924;28;19931;-59
2023/08/27 01:39:05;;;;;;;;;;;26.60;60.60;;;;;;5095819;28;19927;-59
2023/08/27 01:41:32;;;;;;;;;;;26.60;60.60;;;;;;5094992;28;19928;-59
2023/08/27 01:43:59;;;;;;;;;;;26.60;60.60;;;;;;5095273;28;19928;-60
2023/08/27 01:46:26;;;;;;;;;;;26.60;60.60;;;;;;5095574;28;19963;-60
2023/08/27 01:48:53;;;;;;;;;;;26.60;60.60;;;;;;5095295;28;19925;-59
2023/08/27 01:51:20;;;;;;;;;;;26.60;60.60;;;;;;5094615;28;19977;-59
2023/08/27 01:53:47;;;;;;;;;;;26.60;60.60;;;;;;5094575;28;19930;-59
2023/08/27 01:56:14;;;;;;;;;;;26.60;60.60;;;;;;5094065;28;19950;-59
2023/08/27 01:58:41;;;;;;;;;;;26.60;60.60;;;;;;5094860;28;20014;-59
2023/08/27 02:01:08;;;;;;;;;;;26.60;60.60;;;;;;5095092;28;19928;-60
2023/08/27 02:03:35;;;;;;;;;;;26.60;60.60;;;;;;5094510;28;19930;-59
2023/08/27 02:06:03;;;;;;;;;;;26.60;60.60;;;;;;5094783;28;19969;-59
2023/08/27 02:08:30;;;;;;;;;;;26.60;60.60;;;;;;5095152;28;19924;-60
2023/08/27 02:10:57;;;;;;;;;;;26.60;60.60;;;;;;5095272;28;19925;-59
2023/08/27 02:13:24;;;;;;;;;;;26.60;60.70;;;;;;5093821;28;20257;-59
2023/08/27 02:15:51;;;;;;;;;;;26.60;60.70;;;;;;5093508;28;19986;-59
2023/08/27 02:18:18;;;;;;;;;;;26.60;60.70;;;;;;5094466;28;20037;-59
2023/08/27 02:20:45;;;;;;;;;;;26.60;60.70;;;;;;5094548;28;19924;-59
2023/08/27 02:23:12;;;;;;;;;;;26.50;60.60;;;;;;5094850;28;19978;-59
2023/08/27 02:25:39;;;;;;;;;;;26.60;60.70;;;;;;5094489;28;19924;-59
2023/08/27 02:28:06;;;;;;;;;;;26.60;60.80;;;;;;5095009;28;20327;-60
2023/08/27 02:30:33;;;;;;;;;;;26.60;60.70;;;;;;5094775;28;19928;-59
2023/08/27 02:33:00;;;;;;;;;;;26.50;60.70;;;;;;5094760;28;19946;-59
2023/08/27 02:35:27;;;;;;;;;;;26.50;60.70;;;;;;5094480;28;19978;-59
2023/08/27 02:37:54;;;;;;;;;;;26.50;60.70;;;;;;5094559;28;19924;-59
2023/08/27 02:40:21;;;;;;;;;;;26.50;60.70;;;;;;5094700;28;20350;-59
2023/08/27 02:42:48;;;;;;;;;;;26.50;60.70;;;;;;5094565;28;19924;-59
2023/08/27 02:45:15;;;;;;;;;;;26.50;60.70;;;;;;5094111;28;19970;-59
2023/08/27 02:47:42;;;;;;;;;;;26.50;60.70;;;;;;5094224;28;19957;-59
2023/08/27 02:50:10;;;;;;;;;;;26.50;60.80;;;;;;5094481;28;19924;-59
2023/08/27 02:52:37;;;;;;;;;;;26.50;60.80;;;;;;5094359;28;19924;-59
2023/08/27 02:55:04;;;;;;;;;;;26.50;60.80;;;;;;5093638;28;20268;-59
2023/08/27 02:57:31;;;;;;;;;;;26.50;60.70;;;;;;5093586;28;19969;-59
2023/08/27 02:59:58;;;;;;;;;;;26.50;60.80;;;;;;5093993;28;19978;-59
2023/08/27 03:02:26;;;;;;;;;;;26.50;61.40;;;;;;5093411;28;19977;-59
2023/08/27 03:04:53;;;;;;;;;;;26.50;60.80;;;;;;5094113;28;20277;-59
2023/08/27 03:07:20;;;;;;;;;;;26.50;60.80;;;;;;5094049;28;19926;-59
2023/08/27 03:09:47;;;;;;;;;;;26.50;60.90;;;;;;5093789;28;19931;-59
2023/08/27 03:12:16;;;;;;;;;;;26.50;61.40;;;;;;5094431;28;19924;-59
2023/08/27 03:14:43;;;;;;;;;;;26.50;60.90;;;;;;5092953;28;19981;-59
2023/08/27 03:17:10;;;;;;;;;;;26.50;61.40;;;;;;5093226;28;19971;-60
2023/08/27 03:19:37;;;;;;;;;;;26.50;60.90;;;;;;5092916;28;19931;-60
2023/08/27 03:22:04;;;;;;;;;;;26.50;60.90;;;;;;5092866;28;19925;-59
2023/08/27 03:24:31;;;;;;;;;;;26.50;60.90;;;;;;5094072;28;19963;-59
2023/08/27 03:26:58;;;;;;;;;;;26.50;60.90;;;;;;5093516;28;19978;-59
2023/08/27 03:29:27;;;;;;;;;;;26.50;60.80;;;;;;5094006;28;19993;-60
2023/08/27 03:31:56;;;;;;;;;;;26.50;60.90;;;;;;5093508;28;19924;-59
2023/08/27 03:34:23;;;;;;;;;;;26.50;60.70;;;;;;5093626;28;19928;-60
2023/08/27 03:36:50;;;;;;;;;;;26.50;60.70;;;;;;5093169;28;19924;-59
2023/08/27 03:39:17;;;;;;;;;;;26.50;60.70;;;;;;5093803;28;19924;-59
2023/08/27 03:41:45;;;;;;;;;;;26.50;60.80;;;;;;5093419;28;19924;-59
2023/08/27 03:44:11;;;;;;;;;;;26.50;60.80;;;;;;5093901;28;19928;-59
2023/08/27 03:46:42;;;;;;;;;;;26.50;60.80;;;;;;5093711;28;20421;-59
2023/08/27 03:49:08;;;;;;;;;;;26.50;60.80;;;;;;5092559;28;19965;-59
2023/08/27 03:51:35;;;;;;;;;;;26.50;60.70;;;;;;5093753;28;20281;-59
2023/08/27 03:54:02;;;;;;;;;;;26.50;60.80;;;;;;5093384;28;19925;-59
2023/08/27 03:56:29;;;;;;;;;;;26.50;60.80;;;;;;5093212;28;19924;-59
2023/08/27 03:58:56;;;;;;;;;;;26.50;60.70;;;;;;5092852;28;19967;-59
2023/08/27 04:01:23;;;;;;;;;;;26.50;60.70;;;;;;5092529;28;19988;-59
2023/08/27 04:03:53;;;;;;;;;;;26.50;60.70;;;;;;5093695;28;19978;-60
2023/08/27 04:06:20;;;;;;;;;;;26.50;60.70;;;;;;5096226;28;19931;-59
2023/08/27 04:08:47;;;;;;;;;;;26.50;60.80;;;;;;5097149;28;19931;-60
2023/08/27 04:11:15;;;;;;;;;;;26.50;60.70;;;;;;5096982;28;19924;-59
2023/08/27 04:13:42;;;;;;;;;;;26.50;60.70;;;;;;5096986;28;19928;-59
2023/08/27 04:16:10;;;;;;;;;;;26.50;60.70;;;;;;5097268;28;19969;-59
2023/08/27 04:18:37;;;;;;;;;;;26.50;60.70;;;;;;5097328;28;19924;-59
2023/08/27 04:21:04;;;;;;;;;;;26.50;60.70;;;;;;5097408;28;20307;-59
2023/08/27 04:23:33;;;;;;;;;;;26.50;60.70;;;;;;5097412;28;19931;-59
2023/08/27 04:26:03;;;;;;;;;;;26.50;60.70;;;;;;5097101;28;20023;-59
2023/08/27 04:28:31;;;;;;;;;;;26.50;60.70;;;;;;5097144;28;19947;-59
2023/08/27 04:30:58;;;;;;;;;;;26.50;60.70;;;;;;5096032;28;20380;-59
2023/08/27 04:33:26;;;;;;;;;;;26.50;60.70;;;;;;5096025;28;19924;-59
2023/08/27 04:35:53;;;;;;;;;;;26.50;60.60;;;;;;5096861;28;19924;-59
2023/08/27 04:38:21;;;;;;;;;;;26.50;60.70;;;;;;5097031;28;19928;-59
2023/08/27 04:40:51;;;;;;;;;;;26.40;60.90;;;;;;5097089;28;19969;-59
2023/08/27 04:43:19;;;;;;;;;;;26.30;61.00;;;;;;5096699;28;19933;-59
2023/08/27 04:45:46;;;;;;;;;;;26.10;60.90;;;;;;5096151;28;19924;-59
2023/08/27 04:48:13;;;;;;;;;;;26.00;58.20;;;;;;5096569;28;19972;-59
2023/08/27 04:50:43;;;;;;;;;;;25.70;56.60;;;;;;5096865;28;20007;-59
2023/08/27 04:53:10;;;;;;;;;;;25.40;55.00;;;;;;5096733;28;19959;-59
2023/08/27 04:55:36;;;;;;;;;;;25.20;54.00;;;;;;5096212;28;19928;-59
2023/08/27 04:58:04;;;;;;;;;;;24.90;53.00;;;;;;5095992;28;19924;-59
2023/08/27 05:00:31;;;;;;;;;;;24.60;52.40;;;;;;5096385;28;19924;-59
2023/08/27 05:02:58;;;;;;;;;;;24.40;52.80;;;;;;5096185;28;19924;-59
2023/08/27 05:05:25;;;;;;;;;;;24.10;51.70;;;;;;5096208;28;19928;-59
2023/08/27 05:07:52;;;;;;;;;;;23.90;51.50;;;;;;5095986;28;20364;-59
2023/08/27 05:10:19;;;;;;;;;;;23.60;51.30;;;;;;5096326;28;19924;-60
2023/08/27 05:12:46;;;;;;;;;;;23.40;51.00;;;;;;5095232;28;19924;-61
2023/08/27 05:15:16;;;;;;;;;;;23.10;51.70;;;;;;5095987;28;19936;-62
2023/08/27 05:17:43;;;;;;;;;;;22.90;52.30;;;;;;5094868;28;19928;-60
2023/08/27 05:20:10;;;;;;;;;;;22.60;51.60;;;;;;5096252;28;19947;-61
2023/08/27 05:22:37;;;;;;;;;;;22.40;51.10;;;;;;5096158;28;19924;-60
2023/08/27 05:25:04;;;;;;;;;;;22.20;51.60;;;;;;5095791;28;20442;-60
2023/08/27 05:27:32;;;;;;;;;;;22.10;53.20;;;;;;5095412;28;19971;-59
2023/08/27 05:29:59;;;;;;;;;;;21.80;53.10;;;;;;5096140;28;19924;-60
2023/08/27 05:32:26;;;;;;;;;;;21.70;52.40;;;;;;5096069;28;19928;-62
2023/08/27 05:34:53;;;;;;;;;;;21.50;52.00;;;;;;5095792;28;19924;-60
2023/08/27 05:37:20;;;;;;;;;;;21.50;53.20;;;;;;5095437;28;19924;-61
2023/08/27 05:39:47;;;;;;;;;;;21.30;53.60;;;;;;5095472;28;20273;-60
2023/08/27 05:42:14;;;;;;;;;;;21.20;54.10;;;;;;5095938;28;19927;-62
2023/08/27 05:44:41;;;;;;;;;;;21.10;54.80;;;;;;5095373;28;19924;-62
2023/08/27 05:47:08;;;;;;;;;;;21.10;55.20;;;;;;5094733;28;19924;-61
2023/08/27 05:49:35;;;;;;;;;;;21.00;56.10;;;;;;5095571;28;19928;-61
2023/08/27 05:52:03;;;;;;;;;;;21.00;56.50;;;;;;5095550;28;19924;-60
2023/08/27 05:54:30;;;;;;;;;;;20.90;58.00;;;;;;5094300;28;19928;-61
2023/08/27 05:56:57;;;;;;;;;;;20.90;59.50;;;;;;5094908;28;20474;-64
2023/08/27 05:59:23;;;;;;;;;;;20.80;60.90;;;;;;5095568;28;20292;-61
2023/08/27 06:01:51;;;;;;;;;;;20.80;59.10;;;;;;5095257;28;20376;-61
2023/08/27 06:04:18;;;;;;;;;;;20.70;61.20;;;;;;5094199;28;20376;-61
2023/08/27 06:06:45;;;;;;;;;;;20.70;61.50;;;;;;5094621;28;20314;-60
2023/08/27 06:09:12;;;;;;;;;;;20.60;61.70;;;;;;5095117;28;19947;-62
2023/08/27 06:11:38;;;;;;;;;;;20.60;60.90;;;;;;5095112;28;20265;-60
2023/08/27 06:14:05;;;;;;;;;;;20.60;61.30;;;;;;5095028;28;19928;-60
2023/08/27 06:16:33;;;;;;;;;;;20.60;60.50;;;;;;5095077;28;20361;-59
2023/08/27 06:19:00;;;;;;;;;;;20.60;61.90;;;;;;5094652;28;19931;-59
2023/08/27 06:21:27;;;;;;;;;;;20.50;62.00;;;;;;5095016;28;19970;-59
2023/08/27 06:23:54;;;;;;;;;;;20.50;60.80;;;;;;5095154;28;19928;-59
2023/08/27 06:26:21;;;;;;;;;;;20.50;61.80;;;;;;5094374;28;19954;-59
2023/08/27 06:28:48;;;;;;;;;;;20.50;59.90;;;;;;5094349;28;19973;-59
2023/08/27 06:31:15;;;;;;;;;;;20.50;61.30;;;;;;5094937;28;20379;-59
2023/08/27 06:33:42;;;;;;;;;;;20.50;61.90;;;;;;5094835;28;19946;-59
2023/08/27 06:36:09;;;;;;;;;;;20.50;60.80;;;;;;5094909;28;19928;-59
2023/08/27 06:38:36;;;;;;;;;;;20.50;61.90;;;;;;5094648;28;19924;-59
2023/08/27 06:41:03;;;;;;;;;;;20.50;62.00;;;;;;5094381;28;19977;-59
2023/08/27 06:43:30;;;;;;;;;;;20.50;62.30;;;;;;5094855;28;19924;-59
2023/08/27 06:45:57;;;;;;;;;;;20.50;62.10;;;;;;5094520;28;20417;-59
2023/08/27 06:48:24;;;;;;;;;;;20.50;62.40;;;;;;5094320;28;19924;-59
2023/08/27 06:50:51;;;;;;;;;;;20.50;61.30;;;;;;5093131;28;19924;-59
2023/08/27 06:53:19;;;;;;;;;;;20.50;61.50;;;;;;5094227;28;20490;-59
2023/08/27 06:55:46;;;;;;;;;;;20.50;62.30;;;;;;5094017;28;19928;-59
2023/08/27 06:58:13;;;;;;;;;;;20.60;62.10;;;;;;5094219;28;19924;-60
2023/08/27 07:00:40;;;;;;;;;;;20.50;62.60;;;;;;5094475;28;19924;-59
2023/08/27 07:03:07;;;;;;;;;;;20.60;61.40;;;;;;5091870;28;19980;-59
2023/08/27 07:05:34;;;;;;;;;;;20.60;61.70;;;;;;5092666;28;19924;-59
2023/08/27 07:08:02;;;;;;;;;;;20.60;62.10;;;;;;5093119;28;19924;-59
2023/08/27 07:10:29;;;;;;;;;;;20.60;61.50;;;;;;5093736;28;19931;-59
2023/08/27 07:12:56;;;;;;;;;;;20.60;62.30;;;;;;5094143;28;20284;-59
2023/08/27 07:15:23;;;;;;;;;;;20.60;62.20;;;;;;5093970;28;19932;-59
2023/08/27 07:17:50;;;;;;;;;;;20.50;62.30;;;;;;5093592;28;19925;-59
2023/08/27 07:20:17;;;;;;;;;;;20.50;61.60;;;;;;5093237;28;19924;-59
2023/08/27 07:22:45;;;;;;;;;;;20.50;61.70;;;;;;5093695;28;19924;-59
2023/08/27 07:25:12;;;;;;;;;;;20.60;62.50;;;;;;5093986;28;19924;-59
2023/08/27 07:27:39;;;;;;;;;;;20.60;61.00;;;;;;5093268;28;19931;-59
2023/08/27 07:30:06;;;;;;;;;;;20.60;62.10;;;;;;5093674;28;19928;-59
2023/08/27 07:32:33;;;;;;;;;;;20.60;61.50;;;;;;5093863;28;19931;-59
2023/08/27 07:35:00;;;;;;;;;;;20.60;62.40;;;;;;5093507;28;20015;-59
2023/08/27 07:37:27;;;;;;;;;;;20.70;62.20;;;;;;5093493;28;20277;-59
2023/08/27 07:39:54;;;;;;;;;;;20.70;61.50;;;;;;5096158;28;19924;-59
2023/08/27 07:42:21;;;;;;;;;;;20.70;61.80;;;;;;5100493;28;19925;-60
2023/08/27 07:44:49;;;;;;;;;;;20.70;62.60;;;;;;5100132;28;19928;-59
2023/08/27 07:47:16;;;;;;;;;;;20.70;62.70;;;;;;5100017;28;19978;-59
2023/08/27 07:49:43;;;;;;;;;;;20.80;62.00;;;;;;5100312;28;20377;-59
2023/08/27 07:52:10;;;;;;;;;;;20.70;62.50;;;;;;5100080;28;19924;-59
2023/08/27 07:54:37;;;;;;;;;;;20.80;61.90;;;;;;5099171;28;19924;-59
2023/08/27 07:57:04;;;;;;;;;;;20.80;62.70;;;;;;5099950;28;20284;-60
2023/08/27 07:59:31;;;;;;;;;;;20.80;62.10;;;;;;5099938;28;20426;-60
2023/08/27 08:01:58;;;;;;;;;;;20.90;59.80;;;;;;5098583;28;19924;-59
2023/08/27 08:04:25;;;;;;;;;;;20.90;62.80;;;;;;5099220;28;19924;-60
2023/08/27 08:06:53;;;;;;;;;;;20.90;61.40;;;;;;5098168;28;19959;-60
2023/08/27 08:09:20;;;;;;;;;;;20.90;61.60;;;;;;5100324;28;20348;-59
2023/08/27 08:11:47;;;;;;;;;;;21.00;62.00;;;;;;5100143;28;19932;-60
2023/08/27 08:14:14;;;;;;;;;;;20.90;61.30;;;;;;5100203;28;20327;-59
2023/08/27 08:16:41;;;;;;;;;;;21.00;60.80;;;;;;5100032;28;19975;-59
2023/08/27 08:19:08;;;;;;;;;;;21.00;59.60;;;;;;5100046;28;20032;-60
2023/08/27 08:21:36;;;;;;;;;;;21.00;61.10;;;;;;5100144;28;19966;-59
2023/08/27 08:24:03;;;;;;;;;;;21.00;61.50;;;;;;5100161;28;20314;-59
2023/08/27 08:26:30;;;;;;;;;;;21.00;61.80;;;;;;5100074;28;19924;-60
2023/08/27 08:28:57;;;;;;;;;;;21.10;61.40;;;;;;5099621;28;19958;-59
2023/08/27 08:31:24;;;;;;;;;;;21.10;61.00;;;;;;5099937;28;19925;-59
2023/08/27 08:33:51;;;;;;;;;;;21.20;60.30;;;;;;5099846;28;20372;-59
2023/08/27 08:36:18;;;;;;;;;;;21.20;61.80;;;;;;5099746;28;19924;-60
2023/08/27 08:38:45;;;;;;;;;;;21.20;60.70;;;;;;5100128;28;19928;-59
2023/08/27 08:41:17;;;;;;;;;;;21.30;60.70;;;;;;5100300;28;19924;-59
2023/08/27 08:43:47;;;;;;;;;;;21.30;60.90;;;;;;5099900;28;19924;-59
2023/08/27 08:46:17;;;;;;;;;;;21.30;61.00;;;;;;5100002;28;20316;-60
2023/08/27 08:48:47;;;;;;;;;;;21.40;59.80;;;;;;5099542;28;20431;-60
2023/08/27 08:51:14;;;;;;;;;;;21.40;59.90;;;;;;5098835;28;19928;-60
2023/08/27 08:53:42;;;;;;;;;;;21.40;60.20;;;;;;5096843;28;20372;-60
2023/08/27 08:56:12;;;;;;;;;;;21.40;59.60;;;;;;5096297;28;19924;-60
2023/08/27 08:58:41;;;;;;;;;;;21.50;60.70;;;;;;5096038;28;19970;-60
2023/08/27 09:01:08;;;;;;;;;;;21.50;60.60;;;;;;5096483;28;19975;-59
2023/08/27 09:03:36;;;;;;;;;;;21.50;59.90;;;;;;5096319;28;19928;-60
2023/08/27 09:06:03;;;;;;;;;;;21.50;61.00;;;;;;5096526;28;19924;-60
2023/08/27 09:08:31;;;;;;;;;;;21.50;60.30;;;;;;5096058;28;20436;-60
2023/08/27 09:10:58;;;;;;;;;;;21.60;59.50;;;;;;5096794;28;19924;-60
2023/08/27 09:13:25;;;;;;;;;;;21.50;59.80;;;;;;5094885;28;20380;-60
2023/08/27 09:15:52;;;;;;;;;;;21.60;60.10;;;;;;5096411;28;19928;-60
2023/08/27 09:18:20;;;;;;;;;;;21.60;60.50;;;;;;5095621;28;19924;-60
2023/08/27 09:20:47;;;;;;;;;;;21.60;60.20;;;;;;5095510;28;19928;-60
2023/08/27 09:23:14;;;;;;;;;;;21.60;59.80;;;;;;5096226;28;19924;-60
2023/08/27 09:25:42;;;;;;;;;;;21.60;59.80;;;;;;5096215;28;19959;-60
2023/08/27 09:28:09;;;;;;;;;;;21.60;60.20;;;;;;5095620;28;19968;-59
2023/08/27 09:30:36;;;;;;;;;;;21.60;61.20;;;;;;5096104;28;19924;-60
2023/08/27 09:33:03;;;;;;;;;;;21.60;60.40;;;;;;5095262;28;19970;-59
2023/08/27 09:35:37;;;;;;;;;;;21.60;59.80;;;;;;5094624;28;19923;-59
2023/08/27 09:38:05;;;;;;;;;;;21.60;59.80;;;;;;5095768;28;20296;-60
2023/08/27 09:40:32;;;;;;;;;;;21.60;59.50;;;;;;5095661;28;19931;-60
2023/08/27 09:43:04;;;;;;;;;;;21.60;60.40;;;;;;5096057;28;19924;-60
2023/08/27 09:45:32;;;;;;;;;;;21.60;59.80;;;;;;5095757;28;20438;-60
2023/08/27 09:47:59;;;;;;;;;;;21.60;59.10;;;;;;5095285;28;19970;-59
2023/08/27 09:50:27;;;;;;;;;;;21.70;59.70;;;;;;5095576;28;19928;-60
2023/08/27 09:53:10;;;;;;;;;;;21.70;60.30;;;;;;5094430;28;19970;-59
2023/08/27 09:55:37;;;;;;;;;;;21.70;58.80;;;;;;5095462;28;19928;-60
2023/08/27 09:58:04;;;;;;;;;;;21.70;60.20;;;;;;5095054;28;20376;-60
2023/08/27 10:00:32;;;;;;;;;;;21.60;58.50;;;;;;5095599;28;19924;-60
2023/08/27 10:02:59;;;;;;;;;;;21.70;59.50;;;;;;5094764;28;19931;-60
2023/08/27 10:05:28;;;;;;;;;;;21.60;59.10;;;;;;5094855;28;19924;-60
2023/08/27 10:07:59;;;;;;;;;;;21.60;60.00;;;;;;5094657;28;19924;-60
2023/08/27 10:10:27;;;;;;;;;;;21.60;59.90;;;;;;5095007;28;19934;-60
2023/08/27 10:12:55;;;;;;;;;;;21.60;60.50;;;;;;5095305;28;19924;-60
2023/08/27 10:15:23;;;;;;;;;;;21.50;59.70;;;;;;5095146;28;20272;-60
2023/08/27 10:17:51;;;;;;;;;;;21.50;60.40;;;;;;5094726;28;20360;-60
2023/08/27 10:20:19;;;;;;;;;;;21.50;59.00;;;;;;5094777;28;19931;-59
2023/08/27 10:22:47;;;;;;;;;;;21.50;59.70;;;;;;5095199;28;19924;-60
2023/08/27 10:25:15;;;;;;;;;;;21.60;59.30;;;;;;5094962;28;20364;-60
2023/08/27 10:27:43;;;;;;;;;;;21.60;59.10;;;;;;5094592;28;19959;-60
2023/08/27 10:30:10;;;;;;;;;;;21.60;60.00;;;;;;5094957;28;20334;-60
2023/08/27 10:32:37;;;;;;;;;;;21.60;60.10;;;;;;5094663;28;20322;-59
2023/08/27 10:35:09;;;;;;;;;;;21.60;60.90;;;;;;5093915;28;19930;-60
2023/08/27 10:37:38;;;;;;;;;;;21.70;59.10;;;;;;5093183;28;20368;-60
2023/08/27 10:40:08;;;;;;;;;;;21.70;59.40;;;;;;5094924;28;19924;-60
2023/08/27 10:42:39;;;;;;;;;;;21.70;59.90;;;;;;5094406;28;20015;-60
2023/08/27 10:45:14;;;;;;;;;;;21.70;59.40;;;;;;5094111;28;19931;-60
2023/08/27 10:47:41;;;;;;;;;;;21.70;59.70;;;;;;5093857;28;19966;-60
2023/08/27 10:50:09;;;;;;;;;;;21.70;58.20;;;;;;5094583;28;19978;-60
2023/08/27 10:52:50;;;;;;;;;;;21.70;58.80;;;;;;5094469;28;19977;-60
2023/08/27 10:55:21;;;;;;;;;;;21.70;58.70;;;;;;5094266;28;20118;-60
2023/08/27 10:57:48;;;;;;;;;;;21.70;58.70;;;;;;5092165;28;19928;-60
2023/08/27 11:00:15;;;;;;;;;;;21.70;57.60;;;;;;5093196;28;19924;-60
2023/08/27 11:02:56;;;;;;;;;;;21.70;58.70;;;;;;5093732;28;20018;-60
2023/08/27 11:05:28;;;;;;;;;;;21.70;58.70;;;;;;5094198;28;19924;-60
2023/08/27 11:07:59;;;;;;;;;;;21.70;59.20;;;;;;5093951;28;19977;-60
2023/08/27 11:10:31;;;;;;;;;;;21.70;57.60;;;;;;5094039;28;19931;-60
2023/08/27 11:12:58;;;;;;;;;;;21.60;57.40;;;;;;5094245;28;19928;-60
2023/08/27 11:15:31;;;;;;;;;;;21.60;58.00;;;;;;5093410;28;19927;-60
2023/08/27 11:18:00;;;;;;;;;;;21.60;59.30;;;;;;5094057;28;19947;-60
2023/08/27 11:20:27;;;;;;;;;;;21.60;59.50;;;;;;5094039;28;19934;-60
2023/08/27 11:22:56;;;;;;;;;;;21.60;57.90;;;;;;5094147;28;20373;-61
2023/08/27 11:25:28;;;;;;;;;;;21.60;58.00;;;;;;5094447;28;19924;-60
2023/08/27 11:28:00;;;;;;;;;;;21.60;58.20;;;;;;5092742;28;19924;-62
2023/08/27 11:30:28;;;;;;;;;;;21.60;59.30;;;;;;5093604;28;19979;-59
2023/08/27 11:32:55;;;;;;;;;;;21.70;59.50;;;;;;5093236;28;20369;-60
2023/08/27 11:35:23;;;;;;;;;;;21.70;58.50;;;;;;5093668;28;19923;-59
2023/08/27 11:37:50;;;;;;;;;;;21.70;59.60;;;;;;5093506;28;19962;-60
2023/08/27 11:40:18;;;;;;;;;;;21.70;59.20;;;;;;5093811;28;19932;-60
2023/08/27 11:42:50;;;;;;;;;;;21.80;59.20;;;;;;5093523;28;20019;-60
2023/08/27 11:45:17;;;;;;;;;;;21.80;58.40;;;;;;5093646;28;19966;-59
2023/08/27 11:47:44;;;;;;;;;;;21.80;58.40;;;;;;5093202;28;19924;-59
2023/08/27 11:50:13;;;;;;;;;;;21.80;58.60;;;;;;5093822;28;19989;-60
2023/08/27 11:52:40;;;;;;;;;;;21.80;58.70;;;;;;5093652;28;20326;-59
2023/08/27 11:55:07;;;;;;;;;;;21.90;58.80;;;;;;5093334;28;20468;-60
2023/08/27 11:57:34;;;;;;;;;;;21.90;58.10;;;;;;5092633;28;19977;-60
2023/08/27 12:00:11;;;;;;;;;;;21.90;58.50;;;;;;5092424;28;19931;-61
2023/08/27 12:02:39;;;;;;;;;;;21.90;58.70;;;;;;5092905;28;19924;-60
2023/08/27 12:05:08;;;;;;;;;;;21.90;58.60;;;;;;5093239;28;19970;-60
2023/08/27 12:07:35;;;;;;;;;;;21.90;58.60;;;;;;5093467;28;20438;-60
2023/08/27 12:10:10;;;;;;;;;;;22.00;58.70;;;;;;5093480;28;19924;-60
2023/08/27 12:12:42;;;;;;;;;;;22.00;58.30;;;;;;5093587;28;19974;-60
2023/08/27 12:15:09;;;;;;;;;;;22.00;58.50;;;;;;5093412;28;20360;-60
2023/08/27 12:17:37;;;;;;;;;;;22.00;58.20;;;;;;5093253;28;20376;-60
2023/08/27 12:20:08;;;;;;;;;;;22.10;58.60;;;;;;5093328;28;19985;-61
2023/08/27 12:22:42;;;;;;;;;;;22.10;58.30;;;;;;5092143;28;19970;-60
2023/08/27 12:25:09;;;;;;;;;;;22.10;58.00;;;;;;5093073;28;20007;-60
2023/08/27 12:27:37;;;;;;;;;;;22.10;58.00;;;;;;5096370;28;19986;-60
2023/08/27 12:30:04;;;;;;;;;;;22.10;58.50;;;;;;5096735;28;19928;-61
2023/08/27 12:32:34;;;;;;;;;;;22.10;58.00;;;;;;5097263;28;19931;-61
2023/08/27 12:35:02;;;;;;;;;;;22.10;58.70;;;;;;5096671;28;20022;-61
2023/08/27 12:37:29;;;;;;;;;;;22.10;58.70;;;;;;5097120;28;20368;-61
2023/08/27 12:39:56;;;;;;;;;;;22.10;58.20;;;;;;5096966;28;19969;-61
2023/08/27 12:42:25;;;;;;;;;;;22.20;58.70;;;;;;5096824;28;19924;-59
2023/08/27 12:44:52;;;;;;;;;;;22.10;58.00;;;;;;5096647;28;19971;-59
2023/08/27 12:47:20;;;;;;;;;;;22.20;58.00;;;;;;5096683;28;19931;-59
2023/08/27 12:49:47;;;;;;;;;;;22.10;58.40;;;;;;5096884;28;19970;-61
2023/08/27 12:52:14;;;;;;;;;;;22.20;58.10;;;;;;5096982;28;19946;-61
2023/08/27 12:54:41;;;;;;;;;;;22.10;58.10;;;;;;5096803;28;19924;-61
2023/08/27 12:57:09;;;;;;;;;;;22.10;58.70;;;;;;5096273;28;19924;-62
2023/08/27 12:59:36;;;;;;;;;;;22.20;57.80;;;;;;5096733;28;19971;-61
2023/08/27 13:02:04;;;;;;;;;;;22.20;57.30;;;;;;5096570;28;19924;-61
2023/08/27 13:04:31;;;;;;;;;;;22.20;58.70;;;;;;5096699;28;19936;-61
2023/08/27 13:06:58;;;;;;;;;;;22.20;57.30;;;;;;5096830;28;19969;-61
2023/08/27 13:09:25;;;;;;;;;;;22.20;58.30;;;;;;5095858;28;19924;-61
2023/08/27 13:11:53;;;;;;;;;;;22.10;58.10;;;;;;5096571;28;20277;-59
2023/08/27 13:14:21;;;;;;;;;;;22.20;58.90;;;;;;5096463;28;19924;-59
2023/08/27 13:16:48;;;;;;;;;;;22.10;57.80;;;;;;5095718;28;19928;-59
2023/08/27 13:19:15;;;;;;;;;;;22.10;59.40;;;;;;5096240;28;19924;-59
2023/08/27 13:21:45;;;;;;;;;;;22.10;57.80;;;;;;5096091;28;19924;-59
2023/08/27 13:24:16;;;;;;;;;;;22.10;58.00;;;;;;5095843;28;19924;-59
2023/08/27 13:26:45;;;;;;;;;;;22.10;58.70;;;;;;5095973;28;19928;-59
2023/08/27 13:29:12;;;;;;;;;;;22.10;57.40;;;;;;5095541;28;20431;-59
2023/08/27 13:31:39;;;;;;;;;;;22.10;57.60;;;;;;5096130;28;20343;-59
2023/08/27 13:34:07;;;;;;;;;;;22.00;57.80;;;;;;5095791;28;20014;-59
2023/08/27 13:36:34;;;;;;;;;;;22.10;59.20;;;;;;5095479;28;20346;-59
2023/08/27 13:39:01;;;;;;;;;;;22.00;57.60;;;;;;5094412;28;19925;-59
2023/08/27 13:41:28;;;;;;;;;;;22.00;57.70;;;;;;5095781;28;19985;-59
2023/08/27 13:43:56;;;;;;;;;;;22.00;57.40;;;;;;5095570;28;20330;-59
2023/08/27 13:46:23;;;;;;;;;;;22.00;58.00;;;;;;5095164;28;20028;-59
2023/08/27 13:48:50;;;;;;;;;;;22.00;57.20;;;;;;5095559;28;19986;-59
2023/08/27 13:51:17;;;;;;;;;;;22.00;58.30;;;;;;5095151;28;20344;-59
2023/08/27 13:53:44;;;;;;;;;;;22.10;57.40;;;;;;5095698;28;20018;-59
2023/08/27 13:56:11;;;;;;;;;;;22.00;58.50;;;;;;5095396;28;20327;-59
2023/08/27 13:58:40;;;;;;;;;;;22.00;58.10;;;;;;5095204;28;19994;-59
2023/08/27 14:01:08;;;;;;;;;;;22.00;58.30;;;;;;5095072;28;19967;-59
2023/08/27 14:03:35;;;;;;;;;;;22.00;57.50;;;;;;5095143;28;19924;-59
2023/08/27 14:06:02;;;;;;;;;;;22.10;64.90;;;;;;5095086;28;19924;-59
2023/08/27 14:08:29;;;;;;;;;;;22.30;71.70;;;;;;5094633;28;19970;-59
2023/08/27 14:10:56;;;;;;;;;;;22.50;74.20;;;;;;5094541;28;20376;-59
2023/08/27 14:13:23;;;;;;;;;;;22.70;75.20;;;;;;5095276;28;19963;-59
2023/08/27 14:15:50;;;;;;;;;;;23.00;75.40;;;;;;5094901;28;19924;-59
2023/08/27 14:18:17;;;;;;;;;;;23.30;75.40;;;;;;5095176;28;19924;-59